createdAt,value
2018-05-14T00:03:41.421Z,99.90
2018-05-14T00:07:45.241Z,99.90
2018-05-14T00:11:47.817Z,99.90
2018-05-14T00:15:50.346Z,99.90
2018-05-14T00:19:57.859Z,99.90
2018-05-14T00:24:01.143Z,99.90
2018-05-14T00:28:03.857Z,99.90
2018-05-14T00:32:06.427Z,99.90
2018-05-14T00:36:08.978Z,99.90
2018-05-14T00:40:11.540Z,99.90
2018-05-14T00:44:14.442Z,99.90
2018-05-14T00:48:16.971Z,99.90
2018-05-14T00:52:19.631Z,99.90
2018-05-14T00:56:22.191Z,99.90
2018-05-14T01:00:24.750Z,99.90
2018-05-14T01:04:27.273Z,99.90
2018-05-14T01:08:29.831Z,99.90
2018-05-14T01:12:33.058Z,99.90
2018-05-14T01:16:35.609Z,99.90
2018-05-14T01:20:38.149Z,99.90
2018-05-14T01:29:12.521Z,99.90
2018-05-14T01:33:15.172Z,99.90
2018-05-14T01:37:17.698Z,99.90
2018-05-14T01:41:20.250Z,99.90
2018-05-14T01:45:22.780Z,99.90
2018-05-14T01:49:25.339Z,99.90
2018-05-14T01:53:27.858Z,99.90
2018-05-14T01:57:30.410Z,99.90
2018-05-14T02:01:32.935Z,99.90
2018-05-14T02:05:38.350Z,99.90
2018-05-14T02:09:40.881Z,99.90
2018-05-14T02:13:43.462Z,99.90
2018-05-14T02:17:46.020Z,99.90
2018-05-14T02:21:49.613Z,99.90
2018-05-14T02:25:52.137Z,99.90
2018-05-14T02:29:55.078Z,99.90
2018-05-14T02:33:58.399Z,99.90
2018-05-14T02:38:01.723Z,99.90
2018-05-14T02:42:05.067Z,99.90
2018-05-14T02:46:07.618Z,99.90
2018-05-14T02:50:10.158Z,99.90
2018-05-14T02:54:12.715Z,99.90
2018-05-14T02:58:15.359Z,99.90
2018-05-14T03:02:17.912Z,99.90
2018-05-14T03:06:20.446Z,99.90
2018-05-14T03:10:23.981Z,99.90
2018-05-14T03:14:26.413Z,99.90
2018-05-14T03:18:31.674Z,99.90
2018-05-14T03:22:34.222Z,99.90
2018-05-14T03:26:37.215Z,99.90
2018-05-14T03:30:40.499Z,99.90
2018-05-14T03:34:43.047Z,99.90
2018-05-14T03:38:46.347Z,99.90
2018-05-14T03:42:48.904Z,99.90
2018-05-14T03:46:51.516Z,99.90
2018-05-14T03:50:58.356Z,99.90
2018-05-14T03:55:00.916Z,99.90
2018-05-14T03:59:15.988Z,99.90
2018-05-14T04:03:30.236Z,99.90
2018-05-14T04:07:33.132Z,99.90
2018-05-14T04:11:35.659Z,99.90
2018-05-14T04:15:38.235Z,99.90
2018-05-14T04:19:40.759Z,99.90
2018-05-14T04:23:43.341Z,99.90
2018-05-14T04:27:47.364Z,99.90
2018-05-14T04:31:50.847Z,99.90
2018-05-14T04:35:53.376Z,99.90
2018-05-14T04:39:56.686Z,99.90
2018-05-14T04:43:59.207Z,99.90
2018-05-14T04:48:02.627Z,99.90
2018-05-14T04:52:06.110Z,99.90
2018-05-14T04:56:09.097Z,99.90
2018-05-14T05:00:11.726Z,99.90
2018-05-14T05:04:14.266Z,99.90
2018-05-14T05:08:16.782Z,99.90
2018-05-14T05:12:19.342Z,99.90
2018-05-14T05:16:21.876Z,99.90
2018-05-14T05:20:24.420Z,99.90
2018-05-14T05:24:26.941Z,99.90
2018-05-14T05:28:29.540Z,99.90
2018-05-14T05:32:32.047Z,99.90
2018-05-14T05:36:34.588Z,99.90
2018-05-14T05:40:37.108Z,99.90
2018-05-14T05:44:39.750Z,99.90
2018-05-14T05:48:43.027Z,99.90
2018-05-14T05:52:45.566Z,99.90
2018-05-14T05:56:48.094Z,99.90
2018-05-14T06:00:50.639Z,99.90
2018-05-14T06:04:53.162Z,99.90
2018-05-14T06:08:57.809Z,99.90
2018-05-14T06:13:00.331Z,99.90
2018-05-14T06:17:02.882Z,99.90
2018-05-14T06:21:05.420Z,99.90
2018-05-14T06:25:08.071Z,99.90
2018-05-14T06:29:14.518Z,99.90
2018-05-14T06:33:17.063Z,99.90
2018-05-14T06:37:19.607Z,99.90
2018-05-14T06:41:28.362Z,99.90
2018-05-14T06:45:31.642Z,99.90
2018-05-14T06:49:34.191Z,99.90
2018-05-14T06:53:36.710Z,99.90
2018-05-14T06:57:42.623Z,99.90
2018-05-14T07:01:45.138Z,99.90
2018-05-14T07:05:47.685Z,99.90
2018-05-14T07:09:50.214Z,99.90
2018-05-14T07:13:52.864Z,99.90
2018-05-14T07:17:55.383Z,99.90
2018-05-14T07:21:58.702Z,99.90
2018-05-14T07:26:02.183Z,99.90
2018-05-14T07:30:04.767Z,99.90
2018-05-14T07:34:08.082Z,99.90
2018-05-14T07:38:10.974Z,99.90
2018-05-14T07:42:14.262Z,99.60
2018-05-14T07:46:16.898Z,99.60
2018-05-14T07:50:26.735Z,94.90
2018-05-14T07:54:29.932Z,94.80
2018-05-14T07:58:32.216Z,94.40
2018-05-14T08:02:36.219Z,93.10
2018-05-14T08:06:38.743Z,93.10
2018-05-14T08:10:42.561Z,92.90
2018-05-14T08:14:46.056Z,92.90
2018-05-14T08:18:48.607Z,92.80
2018-05-14T08:22:51.891Z,87.70
2018-05-14T08:26:54.430Z,87.60
2018-05-14T08:30:57.910Z,90.80
2018-05-14T08:35:00.858Z,90.00
2018-05-14T08:39:03.370Z,87.20
2018-05-14T08:43:06.270Z,88.10
2018-05-14T08:47:08.783Z,87.00
2018-05-14T08:51:11.327Z,90.50
2018-05-14T08:55:14.629Z,92.50
2018-05-14T08:59:17.170Z,92.50
2018-05-14T09:03:19.798Z,90.90
2018-05-14T09:07:23.124Z,92.40
2018-05-14T09:11:25.646Z,92.40
2018-05-14T09:15:28.400Z,90.90
2018-05-14T09:19:31.782Z,88.90
2018-05-14T09:23:34.234Z,88.80
2018-05-14T09:27:36.755Z,87.40
2018-05-14T09:31:39.310Z,87.20
2018-05-14T09:35:41.827Z,83.80
2018-05-14T09:39:44.368Z,83.20
2018-05-14T09:43:48.830Z,80.10
2018-05-14T09:47:51.370Z,77.20
2018-05-14T09:51:53.874Z,78.10
2018-05-14T09:55:59.736Z,81.60
2018-05-14T10:00:02.250Z,78.90
2018-05-14T10:04:04.876Z,77.80
2018-05-14T10:08:07.386Z,80.00
2018-05-14T10:12:09.934Z,79.20
2018-05-14T10:16:12.491Z,78.90
2018-05-14T10:20:15.110Z,80.80
2018-05-14T10:24:17.624Z,78.60
2018-05-14T10:28:20.940Z,79.90
2018-05-14T10:32:23.461Z,80.00
2018-05-14T10:36:26.875Z,79.10
2018-05-14T10:40:29.388Z,79.10
2018-05-14T10:44:32.774Z,80.40
2018-05-14T10:48:35.281Z,80.30
2018-05-14T10:52:37.825Z,81.30
2018-05-14T10:56:41.121Z,81.80
2018-05-14T11:00:43.661Z,81.70
2018-05-14T11:04:46.930Z,82.40
2018-05-14T11:08:49.474Z,82.20
2018-05-14T11:12:57.042Z,82.60
2018-05-14T11:16:59.582Z,82.50
2018-05-14T11:21:02.091Z,81.90
2018-05-14T11:25:04.638Z,81.50
2018-05-14T11:29:07.146Z,81.30
2018-05-14T11:33:09.707Z,84.50
2018-05-14T11:37:12.228Z,83.60
2018-05-14T11:41:15.551Z,83.70
2018-05-14T11:45:37.313Z,82.10
2018-05-14T11:49:40.643Z,82.40
2018-05-14T11:53:43.930Z,83.90
2018-05-14T11:57:46.518Z,83.90
2018-05-14T12:01:49.047Z,82.60
2018-05-14T12:05:51.646Z,83.70
2018-05-14T12:09:54.166Z,83.20
2018-05-14T12:18:07.959Z,81.20
2018-05-14T12:22:10.451Z,79.70
2018-05-14T12:26:13.363Z,79.20
2018-05-14T12:30:15.940Z,82.70
2018-05-14T12:34:18.939Z,81.00
2018-05-14T12:38:24.268Z,82.70
2018-05-14T12:42:26.995Z,82.70
2018-05-14T12:46:29.527Z,82.40
2018-05-14T12:50:32.079Z,83.60
2018-05-14T12:54:34.591Z,83.40
2018-05-14T12:58:37.136Z,80.60
2018-05-14T13:02:39.647Z,78.00
2018-05-14T13:06:43.075Z,82.20
2018-05-14T13:10:46.371Z,82.60
2018-05-14T13:14:49.042Z,82.60
2018-05-14T13:18:53.311Z,77.50
2018-05-14T13:22:56.100Z,77.50
2018-05-14T13:26:58.623Z,78.80
2018-05-14T13:31:12.114Z,81.00
2018-05-14T13:35:14.658Z,78.70
2018-05-14T13:39:38.760Z,75.90
2018-05-14T13:43:41.274Z,76.60
2018-05-14T13:47:44.179Z,74.00
2018-05-14T13:51:47.470Z,70.70
2018-05-14T13:55:50.022Z,70.70
2018-05-14T13:59:52.543Z,73.80
2018-05-14T14:03:55.092Z,70.20
2018-05-14T14:07:57.609Z,71.40
2018-05-14T14:12:00.949Z,70.30
2018-05-14T14:16:04.437Z,69.70
2018-05-14T14:20:06.997Z,68.40
2018-05-14T14:24:09.623Z,64.60
2018-05-14T14:28:12.903Z,62.90
2018-05-14T14:32:16.210Z,61.30
2018-05-14T14:36:19.875Z,61.10
2018-05-14T14:40:26.315Z,61.70
2018-05-14T14:44:41.683Z,61.30
2018-05-14T14:48:44.210Z,59.40
2018-05-14T14:52:46.795Z,60.10
2018-05-14T14:56:50.244Z,58.40
2018-05-14T15:00:53.328Z,59.20
2018-05-14T15:04:55.859Z,60.20
2018-05-14T15:08:58.444Z,63.20
2018-05-14T15:13:02.178Z,58.20
2018-05-14T15:17:08.553Z,56.70
2018-05-14T15:21:11.076Z,57.20
2018-05-14T15:25:14.500Z,59.00
2018-05-14T15:29:17.037Z,58.90
2018-05-14T15:33:19.967Z,56.20
2018-05-14T15:37:22.483Z,55.10
2018-05-14T15:41:25.080Z,58.60
2018-05-14T15:45:34.011Z,63.20
2018-05-14T15:49:36.903Z,59.50
2018-05-14T15:53:40.220Z,62.90
2018-05-14T15:57:49.314Z,58.80
2018-05-14T16:01:51.935Z,58.80
2018-05-14T16:05:55.315Z,59.10
2018-05-14T16:09:58.679Z,60.70
2018-05-14T16:14:01.370Z,61.40
2018-05-14T16:18:08.829Z,60.20
2018-05-14T16:22:11.423Z,59.10
2018-05-14T16:26:13.945Z,61.90
2018-05-14T16:30:21.301Z,63.50
2018-05-14T16:34:24.590Z,67.60
2018-05-14T16:38:31.829Z,67.50
2018-05-14T16:42:34.394Z,65.40
2018-05-14T16:46:38.871Z,64.20
2018-05-14T16:50:42.431Z,63.10
2018-05-14T16:54:45.734Z,61.70
2018-05-14T16:58:48.278Z,61.70
2018-05-14T17:02:50.830Z,64.20
2018-05-14T17:06:53.343Z,64.20
2018-05-14T17:10:55.907Z,67.80
2018-05-14T17:14:59.344Z,71.10
2018-05-14T17:19:01.963Z,67.00
2018-05-14T17:23:04.489Z,68.50
2018-05-14T17:27:11.592Z,66.80
2018-05-14T17:31:15.139Z,69.10
2018-05-14T17:35:17.687Z,66.80
2018-05-14T17:39:28.809Z,68.40
2018-05-14T17:43:31.509Z,70.00
2018-05-14T17:47:34.092Z,69.10
2018-05-14T17:51:37.486Z,70.60
2018-05-14T17:55:40.015Z,70.60
2018-05-14T17:59:43.355Z,73.70
2018-05-14T18:03:45.969Z,73.70
2018-05-14T18:07:48.618Z,72.80
2018-05-14T18:11:51.204Z,73.80
2018-05-14T18:15:54.177Z,74.30
2018-05-14T18:20:02.414Z,72.10
2018-05-14T18:24:05.847Z,73.40
2018-05-14T18:28:14.951Z,74.50
2018-05-14T18:32:31.946Z,74.50
2018-05-14T18:36:35.299Z,76.80
2018-05-14T18:45:08.692Z,75.40
2018-05-14T18:49:15.751Z,75.90
2018-05-14T18:53:19.152Z,79.30
2018-05-14T18:57:21.752Z,79.20
2018-05-14T19:01:39.264Z,77.20
2018-05-14T19:05:41.859Z,77.30
2018-05-14T19:09:45.148Z,77.40
2018-05-14T19:13:49.127Z,77.40
2018-05-14T19:17:58.041Z,78.30
2018-05-14T19:22:05.193Z,78.30
2018-05-14T19:26:08.515Z,78.10
2018-05-14T19:30:15.718Z,77.20
2018-05-14T19:34:24.554Z,76.70
2018-05-14T19:38:28.183Z,76.70
2018-05-14T19:42:35.281Z,77.00
2018-05-14T19:46:38.237Z,77.90
2018-05-14T19:50:44.508Z,83.80
2018-05-14T19:55:04.999Z,85.90
2018-05-14T19:59:07.514Z,82.70
2018-05-14T20:03:12.010Z,86.20
2018-05-14T20:07:15.324Z,83.40
2018-05-14T20:11:17.914Z,83.30
2018-05-14T20:15:31.952Z,83.20
2018-05-14T20:19:34.922Z,82.50
2018-05-14T20:23:37.452Z,82.10
2018-05-14T20:27:40.123Z,82.70
2018-05-14T20:31:42.670Z,82.30
2018-05-14T20:35:48.952Z,81.90
2018-05-14T20:39:51.679Z,82.10
2018-05-14T20:43:54.223Z,81.60
2018-05-14T20:47:56.772Z,81.60
2018-05-14T20:52:00.208Z,80.40
2018-05-14T20:56:02.727Z,80.20
2018-05-14T21:00:05.386Z,80.60
2018-05-14T21:04:08.703Z,82.00
2018-05-14T21:08:13.283Z,82.00
2018-05-14T21:12:16.566Z,84.30
2018-05-14T21:16:19.146Z,84.20
2018-05-14T21:20:21.662Z,82.90
2018-05-14T21:24:24.332Z,82.90
2018-05-14T21:28:26.882Z,82.60
2018-05-14T21:32:29.515Z,82.30
2018-05-14T21:36:32.030Z,81.20
2018-05-14T21:40:34.579Z,81.70
2018-05-14T21:44:37.101Z,80.50
2018-05-14T21:48:39.740Z,79.10
2018-05-14T21:52:42.266Z,77.90
2018-05-14T21:56:45.580Z,75.70
2018-05-14T22:00:48.102Z,75.50
2018-05-14T22:04:51.411Z,76.30
2018-05-14T22:08:53.943Z,76.20
2018-05-14T22:12:56.755Z,76.70
2018-05-14T22:16:59.271Z,76.30
2018-05-14T22:21:01.833Z,76.70
2018-05-14T22:25:04.355Z,77.30
2018-05-14T22:29:18.897Z,76.90
2018-05-14T22:33:21.432Z,76.80
2018-05-14T22:37:24.030Z,76.30
2018-05-14T22:41:26.506Z,76.90
2018-05-14T22:45:32.329Z,76.20
2018-05-14T22:49:34.850Z,74.40
2018-05-14T22:53:38.253Z,76.00
2018-05-14T22:57:40.769Z,76.00
2018-05-14T23:01:43.403Z,77.60
2018-05-14T23:05:45.934Z,77.80
2018-05-14T23:09:48.594Z,78.60
2018-05-14T23:13:51.893Z,84.30
2018-05-14T23:17:54.579Z,84.20
2018-05-14T23:21:57.100Z,76.60
2018-05-14T23:25:59.644Z,77.10
2018-05-14T23:30:02.166Z,82.00
2018-05-14T23:34:05.491Z,82.40
2018-05-14T23:38:08.008Z,82.30
2018-05-14T23:42:10.563Z,85.00
2018-05-14T23:46:13.079Z,82.90
2018-05-14T23:50:15.622Z,83.90
2018-05-14T23:54:18.143Z,86.40
2018-05-14T23:58:20.696Z,87.00
